Weather at Cape May County Airport

Public forecast

Using degrees Fahrenheit for public forecast. Weather courtesy of forecast.io.

Current aviation weather report (METAR) for Cape May County Airport

Retrieved 2021/03/04 00:56 UTC (20 minutes ago):

KWWD 040056Z AUTO 22003KT 10SM CLR 06/M02 A2988 RMK AO2 SLP120 T00611022

Closest aviation forecast (TAF) to Cape May County Airport

Closest forecast is Millville Municipal Airport, 22.9 nm (42.4 km) NNW. Retrieved 2021-03-04 00:22 UTC (54 minutes ago):

TAF KMIV 032320Z 0400/0424 VRB04KT P6SM SKC FM040700 31007KT P6SM FEW070 FM041400 32013G24KT P6SM SCT050 FM042300 31012KT P6SM FEW045